createdAt,value
2022-12-28T00:00:42.761Z,99572.00
2022-12-28T00:03:30.421Z,99556.00
2022-12-28T00:06:21.054Z,99550.00
2022-12-28T00:09:12.144Z,99553.00
2022-12-28T00:11:59.878Z,99560.00
2022-12-28T00:14:47.599Z,99565.00
2022-12-28T00:17:35.226Z,99556.00
2022-12-28T00:20:22.871Z,99554.00
2022-12-28T00:23:10.425Z,99545.00
2022-12-28T00:26:10.572Z,99541.00
2022-12-28T00:29:04.136Z,99536.00
2022-12-28T00:31:52.609Z,99540.00
2022-12-28T00:34:40.129Z,99541.00
2022-12-28T00:37:27.776Z,99538.00
2022-12-28T00:40:20.417Z,99533.00
2022-12-28T00:43:11.272Z,99530.00
2022-12-28T00:45:59.350Z,99530.00
2022-12-28T00:48:47.089Z,99535.00
2022-12-28T00:51:34.672Z,99535.00
2022-12-28T00:54:22.360Z,99543.00
2022-12-28T00:57:10.060Z,99548.00
2022-12-28T00:59:57.892Z,99534.00
2022-12-28T01:02:45.986Z,99550.00
2022-12-28T01:05:33.703Z,99542.00
2022-12-28T01:08:21.879Z,99548.00
2022-12-28T01:11:20.234Z,99544.00
2022-12-28T01:14:08.151Z,99542.00
2022-12-28T01:16:58.520Z,99539.00
2022-12-28T01:19:53.635Z,99543.00
2022-12-28T01:22:41.752Z,99534.00
2022-12-28T01:25:29.336Z,99532.00
2022-12-28T01:28:17.121Z,99524.00
2022-12-28T01:31:11.845Z,99517.00
2022-12-28T01:34:00.162Z,99512.00
2022-12-28T01:36:48.168Z,99519.00
2022-12-28T01:39:35.867Z,99513.00
2022-12-28T01:42:23.492Z,99503.00
2022-12-28T01:45:22.010Z,99492.00
2022-12-28T01:48:24.986Z,99498.00
2022-12-28T01:51:13.210Z,99492.00
2022-12-28T01:54:03.785Z,99493.00
2022-12-28T01:56:52.660Z,99502.00
2022-12-28T01:59:49.931Z,99499.00
2022-12-28T02:02:38.872Z,99501.00
2022-12-28T02:05:35.573Z,99497.00
2022-12-28T02:08:41.525Z,99491.00
2022-12-28T02:11:30.740Z,99495.00
2022-12-28T02:14:21.293Z,99498.00
2022-12-28T02:17:12.156Z,99483.00
2022-12-28T02:19:59.965Z,99479.00
2022-12-28T02:23:22.684Z,99467.00
2022-12-28T02:26:41.055Z,99463.00
2022-12-28T02:29:43.478Z,99468.00
2022-12-28T02:33:01.860Z,99456.00
2022-12-28T02:36:02.924Z,99464.00
2022-12-28T02:38:58.548Z,99465.00
2022-12-28T02:41:47.656Z,99466.00
2022-12-28T02:44:55.677Z,99462.00
2022-12-28T02:48:06.004Z,99468.00
2022-12-28T02:51:20.234Z,99464.00
2022-12-28T02:54:54.120Z,99465.00
2022-12-28T02:57:59.851Z,99462.00
2022-12-28T03:01:48.285Z,99453.00
2022-12-28T03:04:51.045Z,99449.00
2022-12-28T03:08:20.431Z,99441.00
2022-12-28T03:11:23.078Z,99429.00
2022-12-28T03:14:24.930Z,99428.00
2022-12-28T03:17:33.461Z,99423.00
2022-12-28T03:20:47.654Z,99418.00
2022-12-28T03:23:56.362Z,99415.00
2022-12-28T03:27:10.678Z,99416.00
2022-12-28T03:30:43.155Z,99412.00
2022-12-28T03:33:31.145Z,99411.00
2022-12-28T03:36:29.977Z,99410.00
2022-12-28T03:39:33.380Z,99413.00
2022-12-28T03:43:02.725Z,99408.00
2022-12-28T03:46:34.711Z,99408.00
2022-12-28T03:49:24.617Z,99408.00
2022-12-28T03:52:13.750Z,99397.00
2022-12-28T03:55:01.395Z,99401.00
2022-12-28T03:57:49.162Z,99396.00
2022-12-28T04:00:36.759Z,99393.00
2022-12-28T04:03:24.262Z,99383.00
2022-12-28T04:06:19.852Z,99395.00
2022-12-28T04:09:07.654Z,99383.00
2022-12-28T04:11:55.175Z,99381.00
2022-12-28T04:14:42.597Z,99362.00
2022-12-28T04:17:33.306Z,99355.00
2022-12-28T04:20:20.850Z,99359.00
2022-12-28T04:23:08.631Z,99366.00
2022-12-28T04:26:12.861Z,99370.00
2022-12-28T04:29:02.307Z,99369.00
2022-12-28T04:31:50.063Z,99372.00
2022-12-28T04:34:39.135Z,99374.00
2022-12-28T04:37:29.533Z,99376.00
2022-12-28T04:40:17.153Z,99365.00
2022-12-28T04:43:04.706Z,99376.00
2022-12-28T04:46:01.007Z,99377.00
2022-12-28T04:48:48.575Z,99365.00
2022-12-28T04:51:36.214Z,99367.00
2022-12-28T04:54:23.726Z,99373.00
2022-12-28T04:57:11.247Z,99367.00
2022-12-28T04:59:58.776Z,99365.00
2022-12-28T05:02:46.536Z,99375.00
2022-12-28T05:05:34.682Z,99377.00
2022-12-28T05:08:22.150Z,99369.00
2022-12-28T05:11:16.027Z,99368.00
2022-12-28T05:14:03.549Z,99361.00
2022-12-28T05:16:52.452Z,99359.00
2022-12-28T05:19:39.984Z,99360.00
2022-12-28T05:22:27.601Z,99364.00
2022-12-28T05:25:15.173Z,99359.00
2022-12-28T05:28:02.705Z,99363.00
2022-12-28T05:30:50.504Z,99359.00
2022-12-28T05:33:38.940Z,99357.00
2022-12-28T05:36:28.021Z,99354.00
2022-12-28T05:39:15.484Z,99360.00
2022-12-28T05:42:03.127Z,99352.00
2022-12-28T05:44:50.646Z,99345.00
2022-12-28T05:47:38.072Z,99333.00
2022-12-28T05:50:25.625Z,99330.00
2022-12-28T05:53:13.095Z,99322.00
2022-12-28T05:56:19.144Z,99323.00
2022-12-28T05:59:07.955Z,99321.00
2022-12-28T06:01:55.679Z,99326.00
2022-12-28T06:04:43.294Z,99323.00
2022-12-28T06:07:30.892Z,99308.00
2022-12-28T06:10:18.397Z,99311.00
2022-12-28T06:13:05.876Z,99321.00
2022-12-28T06:15:53.645Z,99312.00
2022-12-28T06:18:41.776Z,99314.00
2022-12-28T06:21:32.900Z,99311.00
2022-12-28T06:24:20.473Z,99311.00
2022-12-28T06:27:08.060Z,99310.00
2022-12-28T06:29:55.559Z,99323.00
2022-12-28T06:32:43.099Z,99316.00
2022-12-28T06:35:30.652Z,99314.00
2022-12-28T06:38:18.207Z,99321.00
2022-12-28T06:41:15.570Z,99328.00
2022-12-28T06:44:06.531Z,99329.00
2022-12-28T06:46:54.088Z,99324.00
2022-12-28T06:49:41.535Z,99311.00
2022-12-28T06:52:29.103Z,99314.00
2022-12-28T06:55:16.827Z,99316.00
2022-12-28T06:58:04.401Z,99311.00
2022-12-28T07:00:52.936Z,99328.00
2022-12-28T07:03:41.563Z,99328.00
2022-12-28T07:06:30.740Z,99312.00
2022-12-28T07:09:18.495Z,99309.00
2022-12-28T07:12:06.351Z,99317.00
2022-12-28T07:14:53.934Z,99322.00
2022-12-28T07:17:41.543Z,99323.00
2022-12-28T07:20:29.119Z,99318.00
2022-12-28T07:23:16.620Z,99311.00
2022-12-28T07:26:11.829Z,99304.00
2022-12-28T07:29:02.602Z,99297.00
2022-12-28T07:31:50.154Z,99310.00
2022-12-28T07:34:37.740Z,99318.00
2022-12-28T07:37:25.271Z,99305.00
2022-12-28T07:40:12.990Z,99298.00
2022-12-28T07:43:00.847Z,99289.00
2022-12-28T07:45:48.359Z,99286.00
2022-12-28T07:48:37.812Z,99294.00
2022-12-28T07:51:29.747Z,99299.00
2022-12-28T07:54:17.300Z,99296.00
2022-12-28T07:57:05.020Z,99308.00
2022-12-28T07:59:52.529Z,99308.00
2022-12-28T08:02:40.037Z,99307.00
2022-12-28T08:05:27.580Z,99314.00
2022-12-28T08:08:15.040Z,99327.00
2022-12-28T08:11:10.727Z,99324.00
2022-12-28T08:14:00.083Z,99328.00
2022-12-28T08:16:47.664Z,99338.00
2022-12-28T08:19:35.154Z,99330.00
2022-12-28T08:22:22.713Z,99320.00
2022-12-28T08:25:10.669Z,99330.00
2022-12-28T08:27:58.315Z,99325.00
2022-12-28T08:30:45.898Z,99326.00
2022-12-28T08:33:33.688Z,99314.00
2022-12-28T08:36:22.304Z,99307.00
2022-12-28T08:39:10.212Z,99314.00
2022-12-28T08:41:57.776Z,99326.00
2022-12-28T08:44:45.287Z,99310.00
2022-12-28T08:47:33.445Z,99323.00
2022-12-28T08:50:26.518Z,99321.00
2022-12-28T08:53:17.637Z,99317.00
2022-12-28T08:56:16.440Z,99311.00
2022-12-28T08:59:05.828Z,99308.00
2022-12-28T09:01:53.479Z,99306.00
2022-12-28T09:04:42.183Z,99299.00
2022-12-28T09:07:29.704Z,99304.00
2022-12-28T09:10:17.478Z,99313.00
2022-12-28T09:13:05.065Z,99320.00
2022-12-28T09:16:05.355Z,99326.00
2022-12-28T09:19:02.218Z,99328.00
2022-12-28T09:21:52.680Z,99324.00
2022-12-28T09:24:40.345Z,99317.00
2022-12-28T09:27:28.024Z,99314.00
2022-12-28T09:30:15.591Z,99312.00
2022-12-28T09:33:21.588Z,99310.00
2022-12-28T09:36:09.396Z,99297.00
2022-12-28T09:38:59.492Z,99298.00
2022-12-28T09:41:55.125Z,99304.00
2022-12-28T09:45:06.427Z,99304.00
2022-12-28T09:48:03.360Z,99286.00
2022-12-28T09:50:51.656Z,99281.00
2022-12-28T09:53:39.241Z,99267.00
2022-12-28T09:56:38.390Z,99255.00
2022-12-28T09:59:34.646Z,99257.00
2022-12-28T10:02:31.505Z,99258.00
2022-12-28T10:05:21.862Z,99252.00
2022-12-28T10:08:16.220Z,99260.00
2022-12-28T10:11:06.170Z,99247.00
2022-12-28T10:14:02.201Z,99250.00
2022-12-28T10:16:49.907Z,99257.00
2022-12-28T10:19:37.828Z,99251.00
2022-12-28T10:22:36.336Z,99242.00
2022-12-28T10:25:26.868Z,99240.00
2022-12-28T10:28:18.324Z,99232.00
2022-12-28T10:31:10.206Z,99234.00
2022-12-28T10:33:57.827Z,99222.00
2022-12-28T10:36:45.759Z,99215.00
2022-12-28T10:39:34.820Z,99211.00
2022-12-28T10:42:33.420Z,99201.00
2022-12-28T10:45:46.441Z,99186.00
2022-12-28T10:48:39.840Z,99183.00
2022-12-28T10:51:30.075Z,99185.00
2022-12-28T10:54:28.178Z,99178.00
2022-12-28T10:57:28.295Z,99171.00
2022-12-28T11:00:23.969Z,99165.00
2022-12-28T11:03:23.872Z,99159.00
2022-12-28T11:06:27.077Z,99158.00
2022-12-28T11:09:24.581Z,99155.00
2022-12-28T11:12:22.708Z,99152.00
2022-12-28T11:15:19.968Z,99145.00
2022-12-28T11:18:21.473Z,99147.00
2022-12-28T11:21:22.225Z,99155.00
2022-12-28T11:24:16.239Z,99149.00
2022-12-28T11:27:03.972Z,99137.00
2022-12-28T11:29:55.132Z,99130.00
2022-12-28T11:33:10.197Z,99116.00
2022-12-28T11:35:59.972Z,99116.00
2022-12-28T11:38:51.988Z,99111.00
2022-12-28T11:41:47.003Z,99120.00
2022-12-28T11:44:43.676Z,99119.00
2022-12-28T11:47:34.136Z,99100.00
2022-12-28T11:50:34.440Z,99090.00
2022-12-28T11:53:34.140Z,99086.00
2022-12-28T11:56:25.402Z,99081.00
2022-12-28T11:59:36.814Z,99078.00
2022-12-28T12:02:27.549Z,99075.00
2022-12-28T12:05:36.908Z,99058.00
2022-12-28T12:08:24.415Z,99059.00
2022-12-28T12:11:26.934Z,99060.00
2022-12-28T12:14:21.824Z,99052.00
2022-12-28T12:17:43.408Z,99049.00
2022-12-28T12:20:53.657Z,99040.00
2022-12-28T12:24:06.211Z,99030.00
2022-12-28T12:27:07.310Z,99026.00
2022-12-28T12:30:20.940Z,99018.00
2022-12-28T12:33:23.410Z,99015.00
2022-12-28T12:36:26.510Z,99013.00
2022-12-28T12:39:33.491Z,99003.00
2022-12-28T12:42:31.204Z,98999.00
2022-12-28T12:45:38.644Z,98992.00
2022-12-28T12:48:52.627Z,98986.00
2022-12-28T12:52:03.560Z,98986.00
2022-12-28T12:55:37.898Z,98989.00
2022-12-28T12:58:37.140Z,98983.00
2022-12-28T13:02:08.829Z,98972.00
2022-12-28T13:04:56.753Z,98974.00
2022-12-28T13:07:44.836Z,98968.00
2022-12-28T13:10:38.072Z,98958.00
2022-12-28T13:13:38.799Z,98955.00
2022-12-28T13:16:31.350Z,98951.00
2022-12-28T13:19:28.909Z,98958.00
2022-12-28T13:22:33.790Z,98958.00
2022-12-28T13:25:32.716Z,98948.00
2022-12-28T13:28:53.771Z,98955.00
2022-12-28T13:31:48.095Z,98938.00
2022-12-28T13:34:37.738Z,98950.00
2022-12-28T13:37:25.335Z,98950.00
2022-12-28T13:40:17.987Z,98927.00
2022-12-28T13:43:48.511Z,98935.00
2022-12-28T13:46:41.795Z,98937.00
2022-12-28T13:49:38.411Z,98937.00
2022-12-28T13:52:35.356Z,98936.00
2022-12-28T13:55:37.243Z,98931.00
2022-12-28T13:58:48.131Z,98928.00
2022-12-28T14:01:52.900Z,98917.00
2022-12-28T14:04:52.444Z,98934.00
2022-12-28T14:07:40.927Z,98927.00
2022-12-28T14:10:29.492Z,98925.00
2022-12-28T14:13:18.748Z,98921.00
2022-12-28T14:16:07.951Z,98923.00
2022-12-28T14:18:55.832Z,98917.00
2022-12-28T14:21:45.627Z,98919.00
2022-12-28T14:24:33.228Z,98926.00
2022-12-28T14:27:20.775Z,98916.00
2022-12-28T14:30:25.102Z,98920.00
2022-12-28T14:33:24.956Z,98911.00
2022-12-28T14:36:23.034Z,98917.00
2022-12-28T14:39:31.278Z,98905.00
2022-12-28T14:42:26.565Z,98911.00
2022-12-28T14:46:06.717Z,98909.00
2022-12-28T14:48:55.410Z,98903.00
2022-12-28T14:51:44.442Z,98911.00
2022-12-28T14:54:53.228Z,98905.00
2022-12-28T14:57:44.824Z,98907.00
2022-12-28T15:00:36.695Z,98908.00
2022-12-28T15:03:28.912Z,98912.00
2022-12-28T15:06:20.099Z,98914.00
2022-12-28T15:09:08.564Z,98908.00
2022-12-28T15:12:20.894Z,98906.00
2022-12-28T15:15:10.865Z,98908.00
2022-12-28T15:17:58.506Z,98895.00
2022-12-28T15:20:46.064Z,98910.00
2022-12-28T15:23:33.749Z,98897.00
2022-12-28T15:26:24.007Z,98896.00
2022-12-28T15:29:13.506Z,98901.00
2022-12-28T15:32:06.483Z,98904.00
2022-12-28T15:34:54.244Z,98891.00
2022-12-28T15:37:41.893Z,98886.00
2022-12-28T15:40:29.811Z,98895.00
2022-12-28T15:43:17.350Z,98883.00
2022-12-28T15:46:05.149Z,98900.00
2022-12-28T15:48:52.684Z,98895.00
2022-12-28T15:51:40.995Z,98894.00
2022-12-28T15:54:28.525Z,98899.00
2022-12-28T15:57:16.291Z,98889.00
2022-12-28T16:00:05.416Z,98893.00
2022-12-28T16:02:53.018Z,98891.00
2022-12-28T16:05:40.595Z,98903.00
2022-12-28T16:08:28.115Z,98897.00
2022-12-28T16:11:18.749Z,98902.00
2022-12-28T16:14:09.053Z,98895.00
2022-12-28T16:16:56.652Z,98894.00
2022-12-28T16:19:44.508Z,98898.00
2022-12-28T16:22:32.095Z,98894.00
2022-12-28T16:25:19.840Z,98897.00
2022-12-28T16:28:07.370Z,98888.00
2022-12-28T16:30:56.116Z,98889.00
2022-12-28T16:33:43.640Z,98892.00
2022-12-28T16:36:32.140Z,98888.00
2022-12-28T16:39:21.086Z,98892.00
2022-12-28T16:42:08.754Z,98886.00
2022-12-28T16:44:56.245Z,98899.00
2022-12-28T16:47:45.029Z,98876.00
2022-12-28T16:50:34.369Z,98871.00
2022-12-28T16:53:24.779Z,98873.00
2022-12-28T16:56:12.688Z,98873.00
2022-12-28T16:59:01.095Z,98869.00
2022-12-28T17:01:49.336Z,98870.00
2022-12-28T17:04:37.135Z,98876.00
2022-12-28T17:07:24.745Z,98875.00
2022-12-28T17:10:12.689Z,98876.00
2022-12-28T17:13:00.399Z,98875.00
2022-12-28T17:15:48.930Z,98877.00
2022-12-28T17:18:36.824Z,98875.00
2022-12-28T17:21:24.412Z,98866.00
2022-12-28T17:24:11.981Z,98867.00
2022-12-28T17:27:06.765Z,98857.00
2022-12-28T17:29:55.104Z,98861.00
2022-12-28T17:32:42.701Z,98860.00
2022-12-28T17:35:30.374Z,98855.00
2022-12-28T17:38:18.438Z,98856.00
2022-12-28T17:41:16.718Z,98859.00
2022-12-28T17:44:05.789Z,98856.00
2022-12-28T17:46:53.294Z,98846.00
2022-12-28T17:49:40.861Z,98839.00
2022-12-28T17:52:28.488Z,98836.00
2022-12-28T17:55:16.169Z,98838.00
2022-12-28T17:58:04.600Z,98838.00
2022-12-28T18:00:58.094Z,98836.00
2022-12-28T18:03:46.762Z,98837.00
2022-12-28T18:06:34.609Z,98823.00
2022-12-28T18:09:27.436Z,98832.00
2022-12-28T18:12:16.743Z,98826.00
2022-12-28T18:15:06.916Z,98835.00
2022-12-28T18:17:54.499Z,98831.00
2022-12-28T18:20:42.665Z,98839.00
2022-12-28T18:23:31.312Z,98828.00
2022-12-28T18:26:23.096Z,98823.00
2022-12-28T18:29:11.305Z,98819.00
2022-12-28T18:31:58.740Z,98825.00
2022-12-28T18:34:46.380Z,98822.00
2022-12-28T18:37:33.956Z,98822.00
2022-12-28T18:40:21.605Z,98824.00
2022-12-28T18:43:09.197Z,98827.00
2022-12-28T18:46:03.258Z,98822.00
2022-12-28T18:48:50.883Z,98825.00
2022-12-28T18:51:38.451Z,98824.00
2022-12-28T18:54:25.981Z,98819.00
2022-12-28T18:57:13.513Z,98818.00
2022-12-28T19:00:01.247Z,98823.00
2022-12-28T19:02:52.340Z,98821.00
2022-12-28T19:05:39.980Z,98823.00
2022-12-28T19:08:27.621Z,98814.00
2022-12-28T19:11:15.604Z,98812.00
2022-12-28T19:14:06.361Z,98799.00
2022-12-28T19:16:53.846Z,98796.00
2022-12-28T19:19:41.356Z,98797.00
2022-12-28T19:22:29.985Z,98798.00
2022-12-28T19:25:17.617Z,98793.00
2022-12-28T19:28:08.654Z,98797.00
2022-12-28T19:31:02.696Z,98791.00
2022-12-28T19:33:52.519Z,98785.00
2022-12-28T19:36:40.134Z,98788.00
2022-12-28T19:39:27.716Z,98791.00
2022-12-28T19:42:15.289Z,98774.00
2022-12-28T19:45:09.401Z,98775.00
2022-12-28T19:47:57.367Z,98774.00
2022-12-28T19:50:44.933Z,98778.00
2022-12-28T19:53:32.454Z,98774.00
2022-12-28T19:56:21.029Z,98764.00
2022-12-28T19:59:08.617Z,98763.00
2022-12-28T20:01:56.266Z,98753.00
2022-12-28T20:04:43.933Z,98747.00
2022-12-28T20:07:31.596Z,98751.00
2022-12-28T20:10:19.137Z,98747.00
2022-12-28T20:13:06.664Z,98753.00
2022-12-28T20:15:54.362Z,98743.00
2022-12-28T20:18:50.183Z,98754.00
2022-12-28T20:21:41.541Z,98736.00
2022-12-28T20:24:29.282Z,98744.00
2022-12-28T20:27:16.863Z,98751.00
2022-12-28T20:30:05.272Z,98757.00
2022-12-28T20:32:52.793Z,98768.00
2022-12-28T20:35:41.686Z,98762.00
2022-12-28T20:38:29.660Z,98770.00
2022-12-28T20:41:51.224Z,98761.00
2022-12-28T20:44:38.803Z,98758.00
2022-12-28T20:47:26.838Z,98754.00
2022-12-28T20:50:14.485Z,98752.00
2022-12-28T20:53:02.094Z,98758.00
2022-12-28T20:55:49.736Z,98760.00
2022-12-28T20:58:39.291Z,98755.00
2022-12-28T21:01:26.929Z,98742.00
2022-12-28T21:04:14.774Z,98739.00
2022-12-28T21:07:02.382Z,98733.00
2022-12-28T21:09:51.490Z,98737.00
2022-12-28T21:12:39.124Z,98743.00
2022-12-28T21:15:26.724Z,98739.00
2022-12-28T21:18:14.537Z,98730.00
2022-12-28T21:21:02.427Z,98734.00
2022-12-28T21:23:52.615Z,98733.00
2022-12-28T21:26:40.176Z,98739.00
2022-12-28T21:29:28.457Z,98728.00
2022-12-28T21:32:15.972Z,98727.00
2022-12-28T21:35:03.796Z,98714.00
2022-12-28T21:37:51.820Z,98715.00
2022-12-28T21:40:39.292Z,98713.00
2022-12-28T21:43:27.342Z,98716.00
2022-12-28T21:46:15.396Z,98711.00
2022-12-28T21:49:04.300Z,98711.00
2022-12-28T21:51:51.852Z,98696.00
2022-12-28T21:54:39.554Z,98712.00
2022-12-28T21:57:27.081Z,98712.00
2022-12-28T22:00:34.963Z,98712.00
2022-12-28T22:03:51.556Z,98707.00
2022-12-28T22:06:39.049Z,98710.00
2022-12-28T22:09:46.731Z,98718.00
2022-12-28T22:12:35.000Z,98709.00
2022-12-28T22:15:44.425Z,98710.00
2022-12-28T22:21:39.398Z,98716.00
2022-12-28T22:24:26.980Z,98721.00
2022-12-28T22:27:14.486Z,98708.00
2022-12-28T22:30:02.378Z,98701.00
2022-12-28T22:32:50.003Z,98704.00
2022-12-28T22:35:37.519Z,98702.00
2022-12-28T22:38:25.015Z,98702.00
2022-12-28T22:41:12.765Z,98702.00
2022-12-28T22:44:00.264Z,98698.00
2022-12-28T22:46:47.819Z,98701.00
2022-12-28T22:49:35.462Z,98700.00
2022-12-28T22:52:23.097Z,98705.00
2022-12-28T22:55:11.379Z,98697.00
2022-12-28T22:57:58.830Z,98697.00
2022-12-28T23:00:46.377Z,98702.00
2022-12-28T23:03:37.231Z,98689.00
2022-12-28T23:06:24.797Z,98686.00
2022-12-28T23:09:12.322Z,98683.00
2022-12-28T23:12:00.011Z,98679.00
2022-12-28T23:15:06.204Z,98687.00
2022-12-28T23:18:13.733Z,98678.00
2022-12-28T23:21:20.121Z,98672.00
2022-12-28T23:24:31.908Z,98669.00
2022-12-28T23:27:22.242Z,98667.00
2022-12-28T23:30:17.786Z,98663.00
2022-12-28T23:33:05.440Z,98658.00
2022-12-28T23:35:52.985Z,98657.00
2022-12-28T23:38:40.517Z,98665.00
2022-12-28T23:41:46.681Z,98657.00
2022-12-28T23:44:34.360Z,98665.00
2022-12-28T23:47:22.041Z,98661.00
2022-12-28T23:50:10.956Z,98662.00
2022-12-28T23:52:58.609Z,98652.00
2022-12-28T23:55:46.143Z,98666.00
2022-12-28T23:58:33.692Z,98666.00
